createdAt,value
2022-09-18T00:01:22.657Z,59.04
2022-09-18T00:03:57.192Z,58.25
2022-09-18T00:06:31.942Z,58.88
2022-09-18T00:09:08.317Z,60.01
2022-09-18T00:11:42.386Z,59.66
2022-09-18T00:14:16.293Z,59.79
2022-09-18T00:16:49.459Z,59.58
2022-09-18T00:19:22.399Z,59.70
2022-09-18T00:21:55.336Z,59.41
2022-09-18T00:24:29.407Z,59.50
2022-09-18T00:27:02.349Z,59.41
2022-09-18T00:29:35.352Z,59.46
2022-09-18T00:32:08.461Z,59.18
2022-09-18T00:34:41.548Z,59.04
2022-09-18T00:37:14.676Z,58.91
2022-09-18T00:39:48.966Z,58.96
2022-09-18T00:42:22.061Z,59.04
2022-09-18T00:44:54.793Z,58.96
2022-09-18T00:47:29.926Z,58.91
2022-09-18T00:50:05.751Z,58.79
2022-09-18T00:52:45.836Z,58.69
2022-09-18T00:55:23.967Z,58.81
2022-09-18T00:57:57.770Z,58.73
2022-09-18T01:00:31.478Z,58.68
2022-09-18T01:03:05.142Z,58.78
2022-09-18T01:05:44.627Z,58.53
2022-09-18T01:08:26.252Z,58.43
2022-09-18T01:11:11.109Z,58.39
2022-09-18T01:13:49.135Z,58.46
2022-09-18T01:16:23.971Z,58.51
2022-09-18T01:19:02.542Z,58.49
2022-09-18T01:21:39.447Z,58.38
2022-09-18T01:24:21.978Z,58.38
2022-09-18T01:26:58.505Z,58.11
2022-09-18T01:29:41.869Z,57.98
2022-09-18T01:32:19.771Z,57.86
2022-09-18T01:34:57.483Z,57.66
2022-09-18T01:37:33.892Z,57.81
2022-09-18T01:40:11.167Z,57.66
2022-09-18T01:42:47.030Z,57.42
2022-09-18T01:45:24.012Z,57.53
2022-09-18T01:48:00.722Z,57.43
2022-09-18T01:50:39.905Z,57.60
2022-09-18T01:53:14.232Z,57.39
2022-09-18T01:55:51.733Z,57.36
2022-09-18T01:58:28.275Z,57.62
2022-09-18T02:01:06.685Z,57.38
2022-09-18T02:03:42.115Z,57.26
2022-09-18T02:06:17.765Z,57.23
2022-09-18T02:08:51.848Z,57.55
2022-09-18T02:11:26.880Z,57.65
2022-09-18T02:14:02.347Z,57.90
2022-09-18T02:16:57.299Z,58.01
2022-09-18T02:19:33.926Z,57.98
2022-09-18T02:22:09.460Z,57.67
2022-09-18T02:24:43.704Z,57.33
2022-09-18T02:27:18.770Z,57.71
2022-09-18T02:29:52.420Z,57.82
2022-09-18T02:32:26.952Z,57.60
2022-09-18T02:34:59.813Z,57.49
2022-09-18T02:37:38.168Z,57.51
2022-09-18T02:40:19.800Z,57.63
2022-09-18T02:42:56.645Z,57.50
2022-09-18T02:45:37.422Z,57.56
2022-09-18T02:48:20.851Z,57.51
2022-09-18T02:50:59.546Z,57.39
2022-09-18T02:53:35.952Z,57.31
2022-09-18T02:56:11.491Z,57.59
2022-09-18T02:58:47.833Z,57.45
2022-09-18T03:01:21.881Z,57.36
2022-09-18T03:04:02.605Z,57.32
2022-09-18T03:06:45.768Z,57.26
2022-09-18T03:09:19.215Z,56.63
2022-09-18T03:11:54.128Z,56.85
2022-09-18T03:14:27.612Z,56.11
2022-09-18T03:17:00.564Z,56.08
2022-09-18T03:19:35.153Z,56.18
2022-09-18T03:22:09.641Z,56.36
2022-09-18T03:24:44.313Z,56.39
2022-09-18T03:27:17.451Z,56.63
2022-09-18T03:29:51.021Z,56.67
2022-09-18T03:32:26.731Z,56.59
2022-09-18T03:35:01.315Z,56.33
2022-09-18T03:37:35.141Z,56.14
2022-09-18T03:40:10.597Z,56.24
2022-09-18T03:42:44.236Z,56.12
2022-09-18T03:45:17.785Z,56.29
2022-09-18T03:47:50.798Z,56.38
2022-09-18T03:50:25.426Z,56.26
2022-09-18T03:52:58.858Z,56.27
2022-09-18T03:55:54.994Z,56.46
2022-09-18T03:58:46.178Z,56.42
2022-09-18T04:01:37.975Z,56.53
2022-09-18T04:04:42.713Z,56.30
2022-09-18T04:07:35.396Z,56.43
2022-09-18T04:10:27.342Z,56.13
2022-09-18T04:13:00.375Z,55.41
2022-09-18T04:15:38.017Z,55.63
2022-09-18T04:18:13.680Z,55.66
2022-09-18T04:20:46.756Z,55.61
2022-09-18T04:23:21.174Z,55.55
2022-09-18T04:25:54.021Z,55.40
2022-09-18T04:28:31.527Z,55.54
2022-09-18T04:31:04.764Z,55.43
2022-09-18T04:33:37.914Z,55.24
2022-09-18T04:36:13.497Z,55.48
2022-09-18T04:38:47.883Z,55.51
2022-09-18T04:41:20.944Z,55.57
2022-09-18T04:43:54.976Z,55.32
2022-09-18T04:46:27.791Z,55.50
2022-09-18T04:49:00.790Z,55.57
2022-09-18T04:51:35.028Z,55.33
2022-09-18T04:54:09.672Z,55.21
2022-09-18T04:56:44.072Z,55.31
2022-09-18T04:59:17.090Z,55.21
2022-09-18T05:01:52.552Z,54.88
2022-09-18T05:04:26.533Z,55.09
2022-09-18T05:07:05.229Z,55.38
2022-09-18T05:09:41.958Z,55.07
2022-09-18T05:12:15.750Z,55.34
2022-09-18T05:14:48.730Z,55.79
2022-09-18T05:17:24.439Z,55.86
2022-09-18T05:20:10.368Z,56.21
2022-09-18T05:22:46.125Z,56.22
2022-09-18T05:25:23.268Z,56.03
2022-09-18T05:27:56.632Z,55.84
2022-09-18T05:30:32.636Z,55.85
2022-09-18T05:33:08.557Z,55.82
2022-09-18T05:35:44.830Z,55.50
2022-09-18T05:38:17.609Z,55.65
2022-09-18T05:40:53.187Z,55.48
2022-09-18T05:43:25.842Z,55.56
2022-09-18T05:46:02.038Z,55.19
2022-09-18T05:48:46.567Z,55.31
2022-09-18T05:51:19.737Z,55.22
2022-09-18T05:53:53.138Z,55.16
2022-09-18T05:56:31.161Z,56.14
2022-09-18T05:59:04.279Z,56.31
2022-09-18T06:01:37.332Z,56.26
2022-09-18T06:04:36.233Z,55.85
2022-09-18T06:07:15.599Z,55.58
2022-09-18T06:09:48.349Z,55.06
2022-09-18T06:12:22.698Z,55.20
2022-09-18T06:14:55.469Z,54.91
2022-09-18T06:17:30.694Z,53.01
2022-09-18T06:20:08.795Z,54.27
2022-09-18T06:22:41.671Z,54.04
2022-09-18T06:25:18.234Z,52.97
2022-09-18T06:27:58.388Z,51.48
2022-09-18T06:30:32.122Z,50.03
2022-09-18T06:33:06.130Z,52.03
2022-09-18T06:35:40.013Z,50.96
2022-09-18T06:38:13.045Z,50.69
2022-09-18T06:40:52.047Z,50.17
2022-09-18T06:43:33.487Z,49.76
2022-09-18T06:46:33.292Z,50.39
2022-09-18T06:49:18.714Z,50.38
2022-09-18T06:51:52.001Z,50.63
2022-09-18T06:54:25.282Z,49.53
2022-09-18T06:56:57.934Z,49.58
2022-09-18T06:59:32.432Z,49.27
2022-09-18T07:02:06.224Z,48.32
2022-09-18T07:04:59.205Z,47.93
2022-09-18T07:07:32.693Z,47.66
2022-09-18T07:10:09.146Z,48.66
2022-09-18T07:12:48.955Z,48.55
2022-09-18T07:15:25.699Z,51.59
2022-09-18T07:17:59.161Z,53.42
2022-09-18T07:20:32.423Z,53.96
2022-09-18T07:23:05.044Z,53.73
2022-09-18T07:25:50.722Z,52.52
2022-09-18T07:28:23.380Z,53.98
2022-09-18T07:31:07.127Z,51.80
2022-09-18T07:33:41.583Z,52.35
2022-09-18T07:36:18.862Z,50.67
2022-09-18T07:38:53.918Z,49.34
2022-09-18T07:41:29.900Z,48.63
2022-09-18T07:44:03.211Z,49.76
2022-09-18T07:46:39.270Z,48.67
2022-09-18T07:49:14.296Z,49.09
2022-09-18T07:51:47.863Z,49.25
2022-09-18T07:54:22.405Z,48.84
2022-09-18T07:57:04.210Z,48.56
2022-09-18T07:59:45.775Z,47.69
2022-09-18T08:02:20.152Z,47.04
2022-09-18T08:04:53.135Z,46.68
2022-09-18T08:07:38.141Z,46.91
2022-09-18T08:10:20.988Z,47.62
2022-09-18T08:13:19.533Z,46.73
2022-09-18T08:16:07.521Z,46.27
2022-09-18T08:19:00.436Z,46.69
2022-09-18T08:21:42.327Z,46.63
2022-09-18T08:24:18.045Z,47.96
2022-09-18T08:26:52.076Z,48.85
2022-09-18T08:29:25.086Z,47.53
2022-09-18T08:32:09.550Z,47.31
2022-09-18T08:34:45.117Z,46.46
2022-09-18T08:37:20.357Z,47.23
2022-09-18T08:40:31.831Z,47.86
2022-09-18T08:43:15.338Z,47.29
2022-09-18T08:45:56.077Z,47.64
2022-09-18T08:48:30.872Z,47.90
2022-09-18T08:51:13.660Z,47.61
2022-09-18T08:53:47.863Z,48.38
2022-09-18T08:56:29.785Z,48.38
2022-09-18T08:59:36.546Z,47.92
2022-09-18T09:02:18.518Z,47.17
2022-09-18T09:04:58.020Z,46.72
2022-09-18T09:07:39.941Z,47.60
2022-09-18T09:10:18.694Z,46.25
2022-09-18T09:12:56.834Z,46.08
2022-09-18T09:15:34.720Z,45.69
2022-09-18T09:18:16.691Z,46.62
2022-09-18T09:20:51.688Z,46.29
2022-09-18T09:23:39.269Z,46.09
2022-09-18T09:26:22.973Z,47.45
2022-09-18T09:29:18.379Z,46.99
2022-09-18T09:32:02.070Z,46.67
2022-09-18T09:34:56.384Z,45.92
2022-09-18T09:37:40.809Z,46.16
2022-09-18T09:40:19.420Z,45.44
2022-09-18T09:42:54.336Z,47.11
2022-09-18T09:45:29.486Z,46.41
2022-09-18T09:48:10.138Z,46.85
2022-09-18T09:50:51.610Z,47.20
2022-09-18T09:53:25.981Z,46.49
2022-09-18T09:56:07.891Z,46.60
2022-09-18T09:58:47.772Z,46.44
2022-09-18T10:01:24.713Z,46.17
2022-09-18T10:04:05.837Z,46.81
2022-09-18T10:06:56.589Z,46.22
2022-09-18T10:09:36.045Z,46.25
2022-09-18T10:12:19.452Z,46.41
2022-09-18T10:14:56.040Z,46.74
2022-09-18T10:17:33.433Z,46.96
2022-09-18T10:20:07.321Z,46.92
2022-09-18T10:22:40.882Z,46.79
2022-09-18T10:25:18.779Z,46.17
2022-09-18T10:27:53.824Z,46.12
2022-09-18T10:30:26.545Z,46.16
2022-09-18T10:33:00.817Z,45.74
2022-09-18T10:35:43.718Z,45.33
2022-09-18T10:38:27.689Z,45.55
2022-09-18T10:41:20.710Z,46.53
2022-09-18T10:43:56.948Z,46.86
2022-09-18T10:46:33.498Z,46.48
2022-09-18T10:49:19.706Z,46.23
2022-09-18T10:52:07.841Z,46.97
2022-09-18T10:54:41.934Z,46.61
2022-09-18T10:57:26.741Z,46.83
2022-09-18T11:00:05.370Z,47.30
2022-09-18T11:02:40.488Z,47.09
2022-09-18T11:05:17.937Z,46.57
2022-09-18T11:07:53.103Z,46.49
2022-09-18T11:10:27.239Z,46.93
2022-09-18T11:13:02.807Z,47.91
2022-09-18T11:15:52.583Z,43.32
2022-09-18T11:18:26.188Z,46.33
2022-09-18T11:21:02.594Z,46.22
2022-09-18T11:23:36.532Z,48.06
2022-09-18T11:26:21.819Z,49.11
2022-09-18T11:29:03.400Z,48.83
2022-09-18T11:31:43.931Z,48.66
2022-09-18T11:34:24.968Z,47.71
2022-09-18T11:37:00.796Z,48.96
2022-09-18T11:39:36.158Z,49.29
2022-09-18T11:42:11.831Z,47.55
2022-09-18T11:44:46.120Z,48.68
2022-09-18T11:47:32.803Z,49.04
2022-09-18T11:50:13.470Z,48.80
2022-09-18T11:52:49.226Z,48.96
2022-09-18T11:55:30.428Z,48.93
2022-09-18T11:58:06.673Z,49.46
2022-09-18T12:00:43.633Z,49.01
2022-09-18T12:03:23.313Z,49.54
2022-09-18T12:05:57.653Z,50.52
2022-09-18T12:08:39.047Z,50.84
2022-09-18T12:11:19.902Z,50.83
2022-09-18T12:13:59.792Z,51.29
2022-09-18T12:16:45.992Z,51.93
2022-09-18T12:19:28.153Z,52.74
2022-09-18T12:22:06.762Z,52.99
2022-09-18T12:24:40.904Z,52.50
2022-09-18T12:27:20.129Z,53.08
2022-09-18T12:30:03.460Z,52.73
2022-09-18T12:32:54.276Z,52.11
2022-09-18T12:35:39.558Z,51.92
2022-09-18T12:38:17.846Z,52.20
2022-09-18T12:41:00.746Z,52.73
2022-09-18T12:43:42.924Z,52.54
2022-09-18T12:46:29.740Z,51.81
2022-09-18T12:49:10.227Z,51.43
2022-09-18T12:51:46.578Z,51.62
2022-09-18T12:54:32.593Z,51.21
2022-09-18T12:57:12.405Z,50.12
2022-09-18T12:59:54.513Z,50.68
2022-09-18T13:02:37.315Z,50.08
2022-09-18T13:05:14.262Z,49.81
2022-09-18T13:07:52.307Z,49.83
2022-09-18T13:10:27.147Z,50.27
2022-09-18T13:13:02.504Z,50.27
2022-09-18T13:15:40.025Z,49.91
2022-09-18T13:18:20.621Z,49.47
2022-09-18T13:20:54.074Z,49.24
2022-09-18T13:23:30.595Z,49.54
2022-09-18T13:26:05.256Z,49.69
2022-09-18T13:28:41.330Z,49.11
2022-09-18T13:31:21.234Z,48.49
2022-09-18T13:33:56.133Z,48.79
2022-09-18T13:36:31.143Z,48.81
2022-09-18T13:39:07.756Z,49.66
2022-09-18T13:41:44.826Z,46.95
2022-09-18T13:44:22.947Z,47.34
2022-09-18T13:46:57.468Z,47.96
2022-09-18T13:49:39.416Z,48.55
2022-09-18T13:52:27.329Z,48.41
2022-09-18T13:55:26.519Z,49.72
2022-09-18T13:58:14.658Z,50.87
2022-09-18T14:00:50.162Z,50.17
2022-09-18T14:03:41.040Z,50.59
2022-09-18T14:06:32.994Z,51.03
2022-09-18T14:09:25.168Z,50.93
2022-09-18T14:12:11.247Z,49.31
2022-09-18T14:14:46.916Z,50.59
2022-09-18T14:17:20.844Z,50.58
2022-09-18T14:20:02.368Z,50.61
2022-09-18T14:22:38.178Z,49.70
2022-09-18T14:25:14.960Z,49.74
2022-09-18T14:27:53.577Z,49.82
2022-09-18T14:30:27.147Z,49.72
2022-09-18T14:33:05.072Z,49.51
2022-09-18T14:35:42.025Z,50.03
2022-09-18T14:38:23.718Z,49.45
2022-09-18T14:41:05.223Z,49.46
2022-09-18T14:43:43.205Z,49.75
2022-09-18T14:46:19.691Z,48.25
2022-09-18T14:48:52.757Z,49.09
2022-09-18T14:51:27.017Z,49.04
2022-09-18T14:54:00.541Z,49.94
2022-09-18T14:56:35.387Z,48.57
2022-09-18T14:59:19.101Z,49.19
2022-09-18T15:01:53.370Z,48.33
2022-09-18T15:04:26.590Z,48.70
2022-09-18T15:07:03.163Z,48.15
2022-09-18T15:09:36.123Z,47.60
2022-09-18T15:12:15.085Z,47.60
2022-09-18T15:14:51.658Z,48.03
2022-09-18T15:17:25.989Z,47.66
2022-09-18T15:20:00.185Z,48.19
2022-09-18T15:22:33.258Z,48.51
2022-09-18T15:25:12.494Z,48.66
2022-09-18T15:27:47.038Z,48.13
2022-09-18T15:30:21.914Z,49.01
2022-09-18T15:32:57.534Z,48.76
2022-09-18T15:35:31.608Z,48.11
2022-09-18T15:38:05.974Z,48.11
2022-09-18T15:40:39.590Z,47.88
2022-09-18T15:43:41.297Z,47.88
2022-09-18T15:46:25.107Z,47.78
2022-09-18T15:49:00.982Z,47.99
2022-09-18T15:51:34.488Z,48.03
2022-09-18T15:54:23.984Z,48.06
2022-09-18T15:56:58.801Z,48.70
2022-09-18T15:59:37.789Z,48.91
2022-09-18T16:02:23.024Z,49.26
2022-09-18T16:04:56.385Z,49.15
2022-09-18T16:07:32.315Z,48.31
2022-09-18T16:10:05.501Z,48.17
2022-09-18T16:12:39.853Z,48.49
2022-09-18T16:15:16.504Z,48.35
2022-09-18T16:17:55.161Z,48.17
2022-09-18T16:20:32.623Z,48.17
2022-09-18T16:23:13.172Z,48.05
2022-09-18T16:25:48.021Z,48.05
2022-09-18T16:28:23.420Z,48.18
2022-09-18T16:30:58.762Z,48.02
2022-09-18T16:33:36.158Z,47.89
2022-09-18T16:36:14.605Z,47.56
2022-09-18T16:38:47.546Z,47.74
2022-09-18T16:41:20.558Z,48.01
2022-09-18T16:43:53.944Z,47.68
2022-09-18T16:46:29.320Z,48.22
2022-09-18T16:49:05.756Z,47.75
2022-09-18T16:51:40.397Z,48.00
2022-09-18T16:54:14.432Z,47.88
2022-09-18T16:56:51.792Z,47.93
2022-09-18T16:59:26.236Z,48.01
2022-09-18T17:02:04.127Z,48.20
2022-09-18T17:04:38.993Z,48.22
2022-09-18T17:07:14.284Z,48.20
2022-09-18T17:09:47.967Z,48.70
2022-09-18T17:12:21.413Z,48.75
2022-09-18T17:14:54.609Z,49.20
2022-09-18T17:17:28.051Z,49.77
2022-09-18T17:20:03.222Z,49.82
2022-09-18T17:22:36.385Z,50.69
2022-09-18T17:25:09.397Z,50.74
2022-09-18T17:27:43.912Z,51.24
2022-09-18T17:30:17.466Z,51.73
2022-09-18T17:32:50.549Z,51.97
2022-09-18T17:35:25.950Z,51.58
2022-09-18T17:38:01.620Z,52.26
2022-09-18T17:40:34.904Z,52.48
2022-09-18T17:43:08.123Z,52.78
2022-09-18T17:45:41.062Z,53.27
2022-09-18T17:48:13.976Z,53.16
2022-09-18T17:50:48.179Z,53.20
2022-09-18T17:53:21.272Z,52.72
2022-09-18T17:56:00.320Z,53.28
2022-09-18T17:58:34.773Z,53.37
2022-09-18T18:01:09.952Z,53.38
2022-09-18T18:03:43.255Z,53.60
2022-09-18T18:06:21.702Z,53.70
2022-09-18T18:08:56.847Z,53.73
2022-09-18T18:11:30.281Z,53.86
2022-09-18T18:14:03.517Z,53.27
2022-09-18T18:16:38.180Z,53.35
2022-09-18T18:19:12.983Z,54.25
2022-09-18T18:21:48.323Z,53.98
2022-09-18T18:24:25.644Z,53.78
2022-09-18T18:26:59.875Z,53.92
2022-09-18T18:29:35.360Z,53.93
2022-09-18T18:32:10.758Z,54.51
2022-09-18T18:34:43.688Z,54.02
2022-09-18T18:37:19.643Z,54.08
2022-09-18T18:39:52.600Z,53.78
2022-09-18T18:42:28.288Z,53.64
2022-09-18T18:45:02.476Z,53.86
2022-09-18T18:47:35.901Z,53.30
2022-09-18T18:50:13.917Z,53.28
2022-09-18T18:52:50.009Z,53.36
2022-09-18T18:55:23.118Z,53.89
2022-09-18T18:57:57.061Z,53.39
2022-09-18T19:00:29.944Z,53.74
2022-09-18T19:03:03.091Z,53.33
2022-09-18T19:05:36.538Z,53.71
2022-09-18T19:08:11.143Z,53.63
2022-09-18T19:10:46.759Z,54.40
2022-09-18T19:13:20.510Z,51.23
2022-09-18T19:15:53.397Z,53.64
2022-09-18T19:18:26.387Z,53.74
2022-09-18T19:20:59.187Z,53.64
2022-09-18T19:23:35.859Z,53.10
2022-09-18T19:26:11.355Z,53.63
2022-09-18T19:28:44.351Z,53.25
2022-09-18T19:31:17.877Z,54.00
2022-09-18T19:33:52.590Z,53.56
2022-09-18T19:36:27.278Z,53.69
2022-09-18T19:39:03.919Z,53.33
2022-09-18T19:41:39.236Z,53.58
2022-09-18T19:44:13.787Z,53.37
2022-09-18T19:46:48.145Z,53.21
2022-09-18T19:49:23.888Z,53.38
2022-09-18T19:51:56.782Z,53.28
2022-09-18T19:54:31.308Z,53.39
2022-09-18T19:57:04.157Z,53.21
2022-09-18T19:59:36.968Z,53.95
2022-09-18T20:02:11.258Z,53.65
2022-09-18T20:04:44.408Z,53.51
2022-09-18T20:07:17.511Z,53.62
2022-09-18T20:09:51.678Z,53.53
2022-09-18T20:12:24.544Z,53.31
2022-09-18T20:14:57.563Z,53.18
2022-09-18T20:17:31.639Z,53.33
2022-09-18T20:20:08.757Z,53.40
2022-09-18T20:22:42.186Z,53.58
2022-09-18T20:25:18.818Z,53.44
2022-09-18T20:27:52.066Z,53.40
2022-09-18T20:30:26.132Z,52.97
2022-09-18T20:32:59.022Z,53.18
2022-09-18T20:35:31.900Z,53.04
2022-09-18T20:38:05.420Z,53.20
2022-09-18T20:40:39.752Z,53.32
2022-09-18T20:43:12.705Z,53.94
2022-09-18T20:45:45.503Z,53.14
2022-09-18T20:48:27.158Z,53.14
2022-09-18T20:51:00.441Z,52.89
2022-09-18T20:53:33.471Z,52.74
2022-09-18T20:56:08.242Z,52.99
2022-09-18T20:58:42.217Z,52.81
2022-09-18T21:01:17.461Z,53.08
2022-09-18T21:03:54.963Z,53.46
2022-09-18T21:06:28.811Z,53.30
2022-09-18T21:09:05.094Z,53.58
2022-09-18T21:11:40.738Z,53.87
2022-09-18T21:14:15.392Z,53.94
2022-09-18T21:16:48.930Z,54.44
2022-09-18T21:19:21.599Z,54.01
2022-09-18T21:21:54.772Z,53.83
2022-09-18T21:24:27.810Z,54.11
2022-09-18T21:27:02.031Z,53.84
2022-09-18T21:29:34.867Z,53.75
2022-09-18T21:32:08.140Z,53.61
2022-09-18T21:34:44.036Z,53.67
2022-09-18T21:37:18.338Z,53.48
2022-09-18T21:39:51.084Z,53.44
2022-09-18T21:42:26.031Z,53.53
2022-09-18T21:45:03.440Z,53.51
2022-09-18T21:47:37.225Z,53.41
2022-09-18T21:50:12.912Z,53.36
2022-09-18T21:52:45.723Z,53.28
2022-09-18T21:55:20.559Z,53.29
2022-09-18T21:57:55.604Z,53.20
2022-09-18T22:00:28.438Z,53.06
2022-09-18T22:03:01.743Z,53.09
2022-09-18T22:05:35.794Z,53.04
2022-09-18T22:08:11.031Z,53.09
2022-09-18T22:10:44.503Z,53.01
2022-09-18T22:13:19.027Z,53.05
2022-09-18T22:15:56.311Z,52.89
2022-09-18T22:18:30.446Z,52.77
2022-09-18T22:21:03.315Z,52.58
2022-09-18T22:23:38.119Z,52.98
2022-09-18T22:26:10.899Z,52.93
2022-09-18T22:28:48.790Z,52.92
2022-09-18T22:31:22.143Z,53.42
2022-09-18T22:33:56.174Z,54.00
2022-09-18T22:36:28.907Z,54.60
2022-09-18T22:39:01.743Z,54.78
2022-09-18T22:41:36.749Z,54.96
2022-09-18T22:44:11.000Z,54.85
2022-09-18T22:46:44.897Z,54.96
2022-09-18T22:49:18.566Z,55.00
2022-09-18T22:51:51.996Z,54.78
2022-09-18T22:54:25.943Z,55.05
2022-09-18T22:56:58.571Z,55.30
2022-09-18T22:59:32.793Z,55.21
2022-09-18T23:02:07.901Z,55.11
2022-09-18T23:04:40.936Z,55.25
2022-09-18T23:07:13.724Z,55.14
2022-09-18T23:09:48.222Z,55.01
2022-09-18T23:12:24.303Z,55.01
2022-09-18T23:14:58.686Z,55.12
2022-09-18T23:17:31.338Z,55.23
2022-09-18T23:20:04.654Z,54.69
2022-09-18T23:22:37.490Z,54.75
2022-09-18T23:25:11.035Z,54.94
2022-09-18T23:27:44.044Z,55.10
2022-09-18T23:30:19.092Z,54.99
2022-09-18T23:32:52.122Z,54.87
2022-09-18T23:35:25.466Z,54.73
2022-09-18T23:37:58.465Z,54.47
2022-09-18T23:40:31.951Z,54.74
2022-09-18T23:43:04.609Z,54.69
2022-09-18T23:45:38.990Z,54.79
2022-09-18T23:48:11.745Z,54.67
2022-09-18T23:50:44.792Z,54.65
2022-09-18T23:53:18.441Z,54.78
2022-09-18T23:55:51.442Z,54.38
2022-09-18T23:58:24.543Z,54.10
